createdAt,value
2017-11-24T00:02:17.110Z,77.87
2017-11-24T00:04:44.580Z,77.02
2017-11-24T00:07:12.035Z,78.22
2017-11-24T00:09:39.513Z,77.87
2017-11-24T00:12:06.959Z,77.85
2017-11-24T00:14:34.439Z,77.99
2017-11-24T00:17:01.881Z,77.75
2017-11-24T00:19:29.339Z,78.40
2017-11-24T00:21:56.774Z,78.38
2017-11-24T00:24:24.242Z,78.92
2017-11-24T00:26:51.788Z,80.37
2017-11-24T00:29:19.254Z,80.48
2017-11-24T00:31:46.719Z,79.24
2017-11-24T00:34:14.158Z,78.59
2017-11-24T00:36:41.620Z,78.67
2017-11-24T00:39:09.053Z,78.96
2017-11-24T00:41:36.519Z,79.30
2017-11-24T00:44:03.968Z,78.79
2017-11-24T00:46:31.567Z,79.48
2017-11-24T00:48:58.998Z,79.17
2017-11-24T00:51:26.474Z,79.89
2017-11-24T00:53:53.912Z,79.35
2017-11-24T00:56:21.378Z,79.29
2017-11-24T00:58:48.820Z,78.96
2017-11-24T01:01:16.282Z,78.56
2017-11-24T01:03:43.731Z,78.60
2017-11-24T01:06:11.187Z,79.21
2017-11-24T01:08:38.775Z,79.32
2017-11-24T01:11:06.217Z,79.90
2017-11-24T01:13:33.666Z,80.27
2017-11-24T01:16:01.100Z,79.74
2017-11-24T01:18:28.556Z,79.36
2017-11-24T01:20:55.997Z,80.21
2017-11-24T01:23:23.501Z,80.08
2017-11-24T01:25:50.951Z,79.87
2017-11-24T01:28:18.493Z,80.23
2017-11-24T01:30:45.963Z,80.05
2017-11-24T01:33:13.422Z,80.26
2017-11-24T01:35:40.864Z,80.32
2017-11-24T01:38:08.326Z,80.32
2017-11-24T01:40:40.860Z,80.64
2017-11-24T01:43:08.329Z,80.77
2017-11-24T01:45:35.795Z,81.20
2017-11-24T01:48:03.242Z,81.49
2017-11-24T01:50:31.231Z,82.35
2017-11-24T01:52:58.688Z,81.62
2017-11-24T01:55:26.152Z,81.64
2017-11-24T01:57:53.606Z,81.72
2017-11-24T02:00:21.193Z,81.56
2017-11-24T02:02:48.638Z,80.94
2017-11-24T02:05:16.089Z,80.58
2017-11-24T02:07:43.568Z,80.40
2017-11-24T02:10:11.045Z,79.85
2017-11-24T02:12:38.578Z,79.51
2017-11-24T02:15:06.062Z,79.79
2017-11-24T02:17:33.514Z,79.67
2017-11-24T02:20:00.967Z,80.44
2017-11-24T02:22:28.413Z,80.65
2017-11-24T02:24:55.870Z,80.08
2017-11-24T02:27:23.317Z,79.69
2017-11-24T02:29:50.805Z,80.56
2017-11-24T02:32:18.240Z,80.02
2017-11-24T02:34:45.675Z,79.91
2017-11-24T02:37:13.161Z,79.63
2017-11-24T02:39:40.683Z,80.53
2017-11-24T02:42:08.238Z,80.18
2017-11-24T02:44:35.720Z,80.09
2017-11-24T02:47:03.225Z,80.27
2017-11-24T02:49:30.671Z,80.21
2017-11-24T02:51:58.136Z,80.16
2017-11-24T02:54:25.652Z,81.13
2017-11-24T02:56:53.099Z,80.97
2017-11-24T02:59:20.529Z,81.08
2017-11-24T03:01:48.027Z,81.44
2017-11-24T03:04:15.481Z,82.83
2017-11-24T03:06:42.956Z,83.16
2017-11-24T03:09:10.410Z,83.22
2017-11-24T03:11:37.860Z,83.56
2017-11-24T03:14:05.335Z,83.48
2017-11-24T03:16:32.763Z,83.18
2017-11-24T03:19:00.237Z,82.87
2017-11-24T03:21:27.756Z,84.02
2017-11-24T03:23:55.228Z,83.84
2017-11-24T03:26:22.666Z,84.15
2017-11-24T03:28:50.151Z,83.74
2017-11-24T03:31:17.591Z,83.35
2017-11-24T03:33:45.140Z,83.19
2017-11-24T03:36:12.597Z,82.25
2017-11-24T03:38:40.051Z,82.46
2017-11-24T03:41:07.498Z,82.94
2017-11-24T03:43:34.957Z,83.10
2017-11-24T03:46:02.421Z,83.05
2017-11-24T03:48:29.893Z,83.19
2017-11-24T03:50:57.330Z,82.74
2017-11-24T03:53:24.774Z,83.20
2017-11-24T03:55:52.234Z,82.39
2017-11-24T03:58:19.694Z,82.77
2017-11-24T04:00:47.255Z,82.79
2017-11-24T04:03:14.709Z,83.08
2017-11-24T04:05:42.172Z,82.84
2017-11-24T04:08:09.607Z,82.43
2017-11-24T04:10:37.059Z,81.74
2017-11-24T04:13:04.513Z,81.62
2017-11-24T04:15:31.998Z,81.52
2017-11-24T04:17:59.434Z,81.45
2017-11-24T04:20:26.956Z,81.88
2017-11-24T04:22:54.400Z,81.96
2017-11-24T04:25:21.852Z,81.61
2017-11-24T04:27:49.324Z,81.38
2017-11-24T04:30:16.817Z,81.11
2017-11-24T04:32:44.291Z,80.55
2017-11-24T04:35:11.733Z,81.02
2017-11-24T04:37:39.222Z,80.62
2017-11-24T04:40:06.651Z,80.34
2017-11-24T04:42:34.105Z,80.48
2017-11-24T04:45:01.537Z,80.98
2017-11-24T04:47:29.004Z,80.44
2017-11-24T04:49:56.486Z,79.70
2017-11-24T04:52:23.939Z,79.60
2017-11-24T04:54:51.393Z,79.60
2017-11-24T04:57:18.871Z,80.36
2017-11-24T04:59:46.309Z,79.59
2017-11-24T05:02:13.769Z,79.49
2017-11-24T05:04:41.217Z,79.25
2017-11-24T05:07:08.694Z,79.44
2017-11-24T05:09:36.220Z,79.78
2017-11-24T05:12:03.666Z,79.79
2017-11-24T05:14:31.180Z,80.40
2017-11-24T05:16:58.740Z,80.74
2017-11-24T05:19:26.284Z,81.22
2017-11-24T05:21:53.733Z,82.14
2017-11-24T05:24:21.302Z,81.76
2017-11-24T05:26:48.739Z,82.79
2017-11-24T05:29:16.221Z,82.42
2017-11-24T05:31:43.672Z,82.51
2017-11-24T05:34:11.133Z,82.70
2017-11-24T05:36:38.589Z,83.00
2017-11-24T05:39:06.135Z,83.92
2017-11-24T05:41:33.583Z,85.46
2017-11-24T05:44:01.156Z,85.39
2017-11-24T05:46:28.602Z,86.46
2017-11-24T05:48:56.052Z,87.06
2017-11-24T05:51:23.506Z,86.30
2017-11-24T05:53:50.938Z,85.45
2017-11-24T05:56:18.388Z,85.61
2017-11-24T05:58:45.835Z,86.26
2017-11-24T06:01:13.303Z,85.27
2017-11-24T06:03:40.769Z,84.23
2017-11-24T06:06:08.255Z,83.21
2017-11-24T06:08:35.713Z,82.72
2017-11-24T06:11:03.182Z,83.26
2017-11-24T06:13:30.610Z,81.66
2017-11-24T06:15:58.082Z,81.89
2017-11-24T06:18:25.529Z,81.94
2017-11-24T06:20:53.009Z,81.33
2017-11-24T06:23:20.464Z,80.97
2017-11-24T06:25:48.075Z,80.76
2017-11-24T06:28:15.521Z,81.61
2017-11-24T06:30:42.969Z,81.51
2017-11-24T06:33:10.451Z,81.06
2017-11-24T06:35:37.912Z,81.02
2017-11-24T06:38:05.406Z,82.07
2017-11-24T06:40:32.850Z,83.37
2017-11-24T06:43:00.333Z,84.04
2017-11-24T06:45:27.766Z,83.26
2017-11-24T06:47:55.227Z,83.20
2017-11-24T06:50:22.666Z,84.19
2017-11-24T06:52:50.161Z,83.89
2017-11-24T06:55:17.613Z,84.08
2017-11-24T06:57:45.085Z,83.42
2017-11-24T07:00:12.538Z,82.71
2017-11-24T07:02:39.989Z,82.11
2017-11-24T07:05:07.458Z,82.48
2017-11-24T07:07:34.986Z,82.89
2017-11-24T07:10:02.453Z,83.10
2017-11-24T07:12:29.932Z,83.08
2017-11-24T07:14:57.429Z,83.37
2017-11-24T07:17:24.892Z,82.32
2017-11-24T07:19:52.382Z,81.70
2017-11-24T07:22:19.843Z,82.30
2017-11-24T07:24:47.276Z,80.49
2017-11-24T07:27:14.788Z,80.47
2017-11-24T07:29:42.244Z,81.50
2017-11-24T07:32:09.732Z,80.99
2017-11-24T07:34:37.267Z,79.98
2017-11-24T07:37:04.737Z,79.84
2017-11-24T07:39:32.180Z,80.14
2017-11-24T07:41:59.685Z,80.21
2017-11-24T07:44:27.605Z,80.20
2017-11-24T07:46:55.137Z,80.00
2017-11-24T07:49:22.581Z,81.22
2017-11-24T07:51:50.124Z,80.18
2017-11-24T07:54:17.594Z,79.92
2017-11-24T07:56:45.087Z,79.71
2017-11-24T07:59:12.537Z,81.00
2017-11-24T08:01:39.994Z,80.15
2017-11-24T08:04:07.510Z,80.51
2017-11-24T08:06:34.942Z,78.64
2017-11-24T08:09:02.423Z,78.32
2017-11-24T08:11:29.986Z,78.65
2017-11-24T08:13:57.526Z,79.34
2017-11-24T08:16:24.972Z,79.14
2017-11-24T08:18:52.427Z,78.79
2017-11-24T08:21:19.914Z,78.87
2017-11-24T08:23:47.375Z,78.87
2017-11-24T08:26:14.837Z,78.25
2017-11-24T08:28:42.297Z,77.81
2017-11-24T08:31:09.745Z,78.75
2017-11-24T08:33:37.313Z,78.82
2017-11-24T08:36:04.841Z,79.96
2017-11-24T08:38:32.307Z,79.76
2017-11-24T08:40:59.768Z,81.14
2017-11-24T08:43:27.201Z,79.71
2017-11-24T08:45:54.679Z,79.20
2017-11-24T08:48:27.857Z,79.58
2017-11-24T08:50:55.336Z,79.31
2017-11-24T08:53:22.796Z,80.14
2017-11-24T08:55:50.254Z,78.50
2017-11-24T08:58:17.813Z,78.56
2017-11-24T09:00:45.288Z,79.39
2017-11-24T09:03:12.734Z,79.06
2017-11-24T09:05:40.204Z,78.22
2017-11-24T09:08:07.643Z,77.57
2017-11-24T09:10:35.127Z,78.98
2017-11-24T09:13:02.601Z,78.22
2017-11-24T09:15:30.065Z,77.49
2017-11-24T09:17:57.532Z,77.48
2017-11-24T09:20:24.961Z,76.40
2017-11-24T09:22:52.420Z,77.19
2017-11-24T09:25:19.896Z,76.80
2017-11-24T09:27:47.347Z,76.60
2017-11-24T09:30:14.779Z,76.30
2017-11-24T09:32:42.249Z,76.61
2017-11-24T09:35:09.730Z,75.25
2017-11-24T09:37:37.187Z,76.12
2017-11-24T09:40:04.632Z,75.84
2017-11-24T09:42:32.125Z,75.14
2017-11-24T09:44:59.583Z,75.16
2017-11-24T09:47:27.035Z,74.52
2017-11-24T09:49:54.494Z,75.58
2017-11-24T09:52:21.922Z,74.71
2017-11-24T09:54:49.374Z,75.99
2017-11-24T09:57:16.805Z,76.17
2017-11-24T09:59:44.314Z,74.64
2017-11-24T10:02:11.756Z,74.80
2017-11-24T10:04:39.325Z,75.68
2017-11-24T10:07:06.821Z,75.49
2017-11-24T10:09:34.336Z,75.73
2017-11-24T10:12:01.782Z,75.46
2017-11-24T10:14:29.410Z,75.51
2017-11-24T10:16:56.845Z,75.33
2017-11-24T10:19:24.355Z,75.21
2017-11-24T10:21:57.278Z,75.58
2017-11-24T10:24:24.798Z,76.00
2017-11-24T10:26:52.268Z,77.11
2017-11-24T10:29:19.743Z,76.01
2017-11-24T10:31:48.187Z,75.76
2017-11-24T10:34:15.673Z,76.83
2017-11-24T10:36:43.151Z,77.43
2017-11-24T10:39:10.610Z,77.15
2017-11-24T10:41:38.078Z,76.85
2017-11-24T10:44:05.524Z,76.73
2017-11-24T10:46:33.002Z,77.34
2017-11-24T10:49:00.445Z,76.18
2017-11-24T10:51:27.898Z,75.79
2017-11-24T10:53:55.369Z,76.32
2017-11-24T10:56:22.818Z,76.85
2017-11-24T10:58:50.334Z,76.92
2017-11-24T11:01:17.875Z,77.09
2017-11-24T11:03:45.339Z,77.22
2017-11-24T11:06:12.813Z,77.67
2017-11-24T11:08:40.282Z,76.96
2017-11-24T11:11:07.733Z,76.78
2017-11-24T11:13:35.203Z,76.33
2017-11-24T11:16:02.732Z,75.59
2017-11-24T11:18:30.202Z,75.59
2017-11-24T11:20:57.645Z,76.08
2017-11-24T11:23:25.086Z,76.39
2017-11-24T11:25:52.568Z,75.73
2017-11-24T11:28:20.059Z,76.78
2017-11-24T11:30:47.537Z,76.33
2017-11-24T11:33:14.982Z,76.18
2017-11-24T11:35:42.448Z,76.33
2017-11-24T11:38:09.948Z,76.73
2017-11-24T11:40:37.416Z,76.47
2017-11-24T11:43:04.858Z,75.55
2017-11-24T11:45:32.343Z,75.71
2017-11-24T11:47:59.868Z,75.20
2017-11-24T11:50:27.395Z,75.43
2017-11-24T11:52:54.828Z,75.33
2017-11-24T11:55:22.312Z,75.64
2017-11-24T11:57:49.819Z,76.28
2017-11-24T12:00:17.221Z,75.75
2017-11-24T12:02:44.815Z,75.83
2017-11-24T12:05:12.273Z,76.17
2017-11-24T12:07:39.845Z,76.35
2017-11-24T12:10:07.289Z,76.53
2017-11-24T12:12:34.770Z,76.28
2017-11-24T12:15:02.224Z,75.93
2017-11-24T12:17:29.777Z,75.57
2017-11-24T12:19:57.222Z,75.59
2017-11-24T12:22:24.689Z,75.93
2017-11-24T12:24:52.150Z,76.38
2017-11-24T12:27:19.600Z,76.27
2017-11-24T12:29:47.069Z,76.07
2017-11-24T12:32:14.600Z,75.61
2017-11-24T12:34:42.083Z,75.67
2017-11-24T12:37:09.513Z,75.41
2017-11-24T12:39:37.068Z,75.40
2017-11-24T12:42:04.544Z,74.93
2017-11-24T12:44:32.073Z,75.12
2017-11-24T12:46:59.511Z,74.95
2017-11-24T12:49:26.993Z,74.59
2017-11-24T12:51:54.469Z,74.58
2017-11-24T12:54:21.910Z,74.97
2017-11-24T12:56:49.457Z,75.27
2017-11-24T12:59:16.896Z,75.10
2017-11-24T13:01:44.380Z,75.07
2017-11-24T13:04:11.813Z,74.86
2017-11-24T13:06:39.294Z,75.70
2017-11-24T13:09:06.749Z,75.55
2017-11-24T13:11:34.246Z,75.59
2017-11-24T13:14:01.705Z,75.40
2017-11-24T13:16:29.175Z,75.04
2017-11-24T13:18:56.683Z,74.97
2017-11-24T13:21:24.146Z,74.79
2017-11-24T13:23:51.578Z,75.67
2017-11-24T13:26:19.015Z,75.62
2017-11-24T13:28:46.514Z,75.94
2017-11-24T13:31:13.946Z,77.29
2017-11-24T13:33:41.526Z,77.44
2017-11-24T13:36:08.971Z,78.50
2017-11-24T13:38:36.438Z,78.26
2017-11-24T13:41:03.876Z,78.43
2017-11-24T13:43:31.336Z,78.84
2017-11-24T13:45:58.771Z,78.89
2017-11-24T13:48:26.253Z,78.81
2017-11-24T13:50:53.810Z,79.46
2017-11-24T13:53:21.305Z,79.52
2017-11-24T13:55:48.860Z,79.81
2017-11-24T13:58:16.332Z,79.98
2017-11-24T14:00:43.775Z,80.08
2017-11-24T14:03:11.257Z,79.92
2017-11-24T14:05:38.687Z,79.96
2017-11-24T14:08:06.129Z,79.79
2017-11-24T14:10:33.602Z,80.43
2017-11-24T14:13:01.051Z,81.15
2017-11-24T14:15:28.514Z,81.84
2017-11-24T14:17:55.968Z,82.71
2017-11-24T14:20:23.484Z,82.95
2017-11-24T14:22:50.915Z,82.58
2017-11-24T14:25:18.369Z,82.86
2017-11-24T14:27:45.807Z,82.42
2017-11-24T14:30:13.254Z,81.88
2017-11-24T14:32:40.685Z,81.53
2017-11-24T14:35:08.151Z,82.21
2017-11-24T14:37:35.654Z,82.40
2017-11-24T14:40:03.134Z,81.58
2017-11-24T14:42:30.598Z,81.76
2017-11-24T14:44:58.034Z,81.90
2017-11-24T14:47:25.525Z,82.07
2017-11-24T14:49:52.962Z,81.90
2017-11-24T14:52:20.545Z,81.94
2017-11-24T14:54:48.004Z,81.98
2017-11-24T14:57:15.484Z,82.14
2017-11-24T14:59:42.942Z,82.58
2017-11-24T15:02:10.425Z,82.22
2017-11-24T15:04:37.925Z,82.62
2017-11-24T15:07:05.397Z,81.45
2017-11-24T15:09:32.872Z,81.96
2017-11-24T15:12:00.310Z,81.97
2017-11-24T15:14:27.835Z,81.92
2017-11-24T15:16:55.267Z,80.46
2017-11-24T15:19:22.752Z,82.61
2017-11-24T15:21:50.248Z,83.78
2017-11-24T15:24:17.706Z,85.94
2017-11-24T15:26:45.164Z,86.30
2017-11-24T15:29:12.646Z,86.62
2017-11-24T15:31:40.129Z,86.31
2017-11-24T15:34:07.579Z,87.43
2017-11-24T15:36:35.039Z,87.81
2017-11-24T15:39:02.488Z,88.74
2017-11-24T15:41:29.940Z,88.29
2017-11-24T15:43:57.387Z,88.25
2017-11-24T15:46:24.857Z,87.76
2017-11-24T15:48:52.291Z,87.02
2017-11-24T15:51:19.743Z,88.03
2017-11-24T15:53:47.170Z,87.28
2017-11-24T15:56:14.712Z,87.66
2017-11-24T15:58:42.172Z,87.93
2017-11-24T16:01:09.683Z,87.72
2017-11-24T16:03:37.128Z,88.07
2017-11-24T16:06:04.634Z,88.32
2017-11-24T16:08:32.104Z,88.28
2017-11-24T16:10:59.659Z,86.71
2017-11-24T16:13:27.173Z,87.39
2017-11-24T16:15:54.630Z,87.77
2017-11-24T16:18:22.098Z,88.40
2017-11-24T16:20:49.530Z,87.43
2017-11-24T16:23:17.008Z,87.00
2017-11-24T16:25:44.491Z,86.75
2017-11-24T16:28:11.946Z,85.56
2017-11-24T16:30:39.433Z,86.65
2017-11-24T16:33:06.883Z,87.59
2017-11-24T16:35:34.492Z,86.78
2017-11-24T16:38:01.950Z,86.21
2017-11-24T16:40:29.457Z,88.06
2017-11-24T16:42:57.005Z,89.33
2017-11-24T16:45:24.564Z,89.54
2017-11-24T16:47:52.015Z,88.73
2017-11-24T16:50:19.498Z,89.74
2017-11-24T16:52:46.944Z,89.94
2017-11-24T16:55:14.388Z,90.99
2017-11-24T16:57:41.938Z,91.85
2017-11-24T17:00:09.403Z,91.97
2017-11-24T17:02:36.900Z,91.65
2017-11-24T17:05:04.331Z,90.95
2017-11-24T17:07:31.867Z,89.87
2017-11-24T17:09:59.314Z,91.10
2017-11-24T17:12:27.638Z,92.33
2017-11-24T17:14:55.102Z,91.19
2017-11-24T17:17:22.601Z,90.83
2017-11-24T17:19:50.091Z,90.98
2017-11-24T17:22:17.582Z,90.64
2017-11-24T17:24:45.145Z,88.28
2017-11-24T17:27:12.681Z,90.07
2017-11-24T17:29:40.151Z,90.69
2017-11-24T17:32:07.597Z,89.57
2017-11-24T17:34:35.118Z,90.50
2017-11-24T17:37:02.556Z,90.38
2017-11-24T17:39:30.013Z,88.62
2017-11-24T17:41:57.499Z,90.68
2017-11-24T17:44:24.961Z,87.88
2017-11-24T17:46:52.422Z,88.89
2017-11-24T17:49:20.069Z,88.70
2017-11-24T17:51:47.505Z,89.60
2017-11-24T17:54:15.004Z,89.98
2017-11-24T17:56:42.452Z,89.90
2017-11-24T17:59:09.996Z,90.50
2017-11-24T18:01:37.434Z,90.93
2017-11-24T18:04:04.911Z,91.52
2017-11-24T18:06:32.373Z,91.50
2017-11-24T18:08:59.838Z,91.11
2017-11-24T18:11:27.311Z,92.39
2017-11-24T18:13:54.747Z,91.88
2017-11-24T18:16:22.226Z,91.94
2017-11-24T18:18:49.700Z,92.58
2017-11-24T18:21:17.156Z,93.07
2017-11-24T18:23:44.616Z,93.13
2017-11-24T18:26:12.164Z,92.88
2017-11-24T18:28:39.625Z,92.93
2017-11-24T18:31:07.106Z,93.50
2017-11-24T18:33:34.581Z,93.31
2017-11-24T18:36:02.060Z,93.37
2017-11-24T18:38:29.505Z,93.14
2017-11-24T18:40:56.953Z,92.69
2017-11-24T18:43:24.425Z,92.42
2017-11-24T18:45:51.873Z,92.24
2017-11-24T18:48:19.347Z,92.17
2017-11-24T18:50:46.807Z,91.58
2017-11-24T18:53:14.307Z,91.50
2017-11-24T18:55:41.780Z,91.85
2017-11-24T18:58:09.237Z,91.53
2017-11-24T19:00:36.669Z,91.29
2017-11-24T19:03:04.157Z,92.59
2017-11-24T19:05:32.428Z,92.52
2017-11-24T19:07:59.992Z,92.34
2017-11-24T19:10:27.775Z,91.51
2017-11-24T19:12:55.330Z,91.52
2017-11-24T19:15:22.857Z,92.92
2017-11-24T19:17:50.378Z,92.92
2017-11-24T19:20:18.132Z,93.41
2017-11-24T19:22:45.668Z,93.45
2017-11-24T19:25:13.126Z,93.14
2017-11-24T19:27:40.696Z,93.32
2017-11-24T19:30:08.210Z,93.39
2017-11-24T19:32:35.663Z,92.54
2017-11-24T19:35:03.157Z,93.46
2017-11-24T19:37:30.639Z,94.71
2017-11-24T19:39:58.103Z,95.25
2017-11-24T19:42:26.293Z,94.29
2017-11-24T19:44:54.011Z,93.78
2017-11-24T19:47:22.455Z,93.30
2017-11-24T19:49:50.218Z,92.62
2017-11-24T19:52:17.908Z,93.01
2017-11-24T19:54:45.463Z,93.03
2017-11-24T19:57:13.026Z,92.49
2017-11-24T19:59:40.574Z,92.99
2017-11-24T20:02:08.041Z,92.58
2017-11-24T20:04:35.483Z,93.55
2017-11-24T20:07:02.954Z,93.32
2017-11-24T20:09:30.396Z,93.54
2017-11-24T20:11:57.859Z,92.82
2017-11-24T20:14:25.347Z,92.47
2017-11-24T20:16:52.888Z,91.86
2017-11-24T20:19:20.421Z,92.00
2017-11-24T20:21:47.877Z,92.17
2017-11-24T20:24:15.353Z,91.88
2017-11-24T20:26:43.080Z,91.55
2017-11-24T20:29:10.590Z,90.52
2017-11-24T20:31:39.937Z,90.95
2017-11-24T20:34:07.480Z,92.67
2017-11-24T20:36:34.991Z,94.14
2017-11-24T20:39:02.469Z,94.30
2017-11-24T20:41:29.962Z,95.78
2017-11-24T20:43:58.805Z,95.04
2017-11-24T20:46:26.283Z,94.91
2017-11-24T20:48:53.778Z,93.82
2017-11-24T20:51:21.245Z,94.98
2017-11-24T20:53:48.686Z,94.99
2017-11-24T20:56:16.848Z,94.81
2017-11-24T20:58:44.311Z,95.81
2017-11-24T21:01:11.796Z,95.80
2017-11-24T21:03:39.259Z,95.87
2017-11-24T21:06:06.732Z,96.13
2017-11-24T21:08:34.206Z,95.37
2017-11-24T21:11:01.769Z,94.51
2017-11-24T21:13:29.252Z,94.13
2017-11-24T21:15:56.753Z,93.62
2017-11-24T21:18:24.264Z,95.17
2017-11-24T21:20:52.040Z,95.66
2017-11-24T21:23:19.534Z,95.85
2017-11-24T21:25:47.026Z,94.76
2017-11-24T21:28:14.556Z,93.95
2017-11-24T21:30:42.029Z,92.47
2017-11-24T21:33:09.579Z,92.24
2017-11-24T21:35:37.029Z,91.70
2017-11-24T21:38:04.498Z,92.18
2017-11-24T21:40:31.964Z,91.58
2017-11-24T21:42:59.435Z,90.80
2017-11-24T21:45:26.885Z,91.94
2017-11-24T21:47:54.370Z,92.09
2017-11-24T21:50:21.828Z,92.58
2017-11-24T21:52:49.290Z,93.15
2017-11-24T21:55:16.755Z,92.49
2017-11-24T21:57:44.219Z,92.55
2017-11-24T22:00:11.688Z,91.84
2017-11-24T22:02:39.151Z,92.30
2017-11-24T22:05:06.601Z,92.59
2017-11-24T22:07:34.091Z,92.59
2017-11-24T22:10:01.573Z,92.80
2017-11-24T22:12:29.030Z,91.58
2017-11-24T22:14:56.519Z,93.19
2017-11-24T22:17:23.962Z,93.41
2017-11-24T22:19:51.461Z,92.35
2017-11-24T22:22:18.963Z,91.38
2017-11-24T22:24:46.431Z,93.05
2017-11-24T22:27:13.873Z,93.84
2017-11-24T22:29:41.361Z,93.92
2017-11-24T22:32:08.823Z,93.87
2017-11-24T22:34:36.290Z,93.94
2017-11-24T22:37:03.730Z,93.59
2017-11-24T22:39:31.297Z,93.16
2017-11-24T22:41:58.766Z,94.17
2017-11-24T22:44:26.241Z,94.81
2017-11-24T22:46:53.679Z,95.34
2017-11-24T22:49:21.157Z,94.77
2017-11-24T22:51:48.619Z,94.73
2017-11-24T22:54:16.098Z,94.70
2017-11-24T22:56:43.597Z,94.53
2017-11-24T22:59:11.098Z,94.06
2017-11-24T23:01:38.559Z,94.49
2017-11-24T23:04:06.030Z,94.39
2017-11-24T23:06:33.520Z,93.93
2017-11-24T23:09:00.977Z,94.03
2017-11-24T23:11:28.439Z,94.60
2017-11-24T23:13:55.897Z,95.18
2017-11-24T23:16:23.368Z,94.82
2017-11-24T23:18:50.816Z,94.42
2017-11-24T23:21:18.364Z,94.56
2017-11-24T23:23:45.914Z,94.56
2017-11-24T23:26:13.389Z,94.72
2017-11-24T23:28:40.836Z,94.92
2017-11-24T23:31:08.320Z,94.95
2017-11-24T23:33:35.755Z,95.53
2017-11-24T23:36:03.214Z,94.86
2017-11-24T23:38:30.650Z,93.62
2017-11-24T23:40:58.114Z,94.42
2017-11-24T23:43:25.584Z,94.12
2017-11-24T23:45:53.122Z,94.32
2017-11-24T23:48:20.608Z,94.34
2017-11-24T23:50:48.139Z,94.38
2017-11-24T23:53:15.629Z,94.43
2017-11-24T23:55:43.066Z,94.19
2017-11-24T23:58:10.573Z,93.75
